Time;durP1;ratioP1;P1;durP2;ratioP2;P2;SDS_P1;SDS_P2;PMS_P1;PMS_P2;Temp;Humidity;BMP_temperature;BMP_pressure;BME280_temperature;BME280_humidity;BME280_pressure;Samples;Min_cycle;Max_cycle;Signal;HPM_P1;HPM_P2
2021/06/26 00:02:12;;;;;;;3.90;2.67;;;20.50;65.80;;;;;;5014102;28;20026;-45
2021/06/26 00:04:39;;;;;;;4.28;2.70;;;20.50;65.80;;;;;;5014013;28;20018;-45
2021/06/26 00:07:04;;;;;;;3.15;2.50;;;20.30;65.70;;;;;;5013771;28;20025;-45
2021/06/26 00:09:30;;;;;;;3.10;2.55;;;20.50;65.90;;;;;;5012793;28;20037;-45
2021/06/26 00:11:55;;;;;;;2.72;2.53;;;20.60;65.90;;;;;;5013620;28;20461;-45
2021/06/26 00:14:21;;;;;;;3.88;2.78;;;20.50;65.90;;;;;;5013867;28;20025;-45
2021/06/26 00:16:47;;;;;;;2.60;2.40;;;20.30;65.70;;;;;;5013610;28;20385;-45
2021/06/26 00:19:12;;;;;;;3.90;2.45;;;20.40;65.80;;;;;;5013746;28;20026;-45
2021/06/26 00:21:38;;;;;;;3.10;2.58;;;20.30;65.70;;;;;;5013716;28;20120;-46
2021/06/26 00:24:04;;;;;;;2.90;2.53;;;20.60;65.90;;;;;;5013746;28;20018;-45
2021/06/26 00:26:30;;;;;;;2.67;2.47;;;20.50;65.80;;;;;;5013355;28;20053;-48
2021/06/26 00:28:55;;;;;;;3.15;2.85;;;20.50;65.90;;;;;;5013693;28;20056;-47
2021/06/26 00:31:21;;;;;;;3.28;2.53;;;20.30;65.80;;;;;;5013696;28;20018;-45
2021/06/26 00:33:47;;;;;;;3.10;2.20;;;20.20;65.70;;;;;;5013593;28;20027;-46
2021/06/26 00:36:12;;;;;;;2.70;2.47;;;20.40;65.80;;;;;;5013543;28;20017;-45
2021/06/26 00:38:38;;;;;;;2.42;2.22;;;20.80;66.00;;;;;;5013205;28;20029;-45
2021/06/26 00:41:04;;;;;;;2.60;2.17;;;20.90;66.00;;;;;;5013119;28;20061;-46
2021/06/26 00:43:31;;;;;;;2.58;2.10;;;20.30;65.70;;;;;;5013339;28;20026;-45
2021/06/26 00:46:00;;;;;;;2.53;2.30;;;20.50;65.90;;;;;;5013074;28;20061;-45
2021/06/26 00:48:26;;;;;;;2.33;2.17;;;20.50;65.80;;;;;;5013386;28;20014;-45
2021/06/26 00:50:52;;;;;;;3.40;2.78;;;20.50;65.80;;;;;;5012958;28;20025;-45
2021/06/26 00:53:18;;;;;;;3.05;2.42;;;20.50;65.90;;;;;;5012138;28;20026;-47
2021/06/26 00:55:52;;;;;;;2.53;2.33;;;20.50;65.90;;;;;;5013207;28;20076;-45
2021/06/26 00:58:21;;;;;;;3.20;2.40;;;20.50;65.90;;;;;;5011829;28;20477;-45
2021/06/26 01:00:48;;;;;;;3.17;2.47;;;20.50;65.90;;;;;;5013112;28;20076;-44
2021/06/26 01:03:14;;;;;;;2.38;2.17;;;20.20;65.70;;;;;;5012836;28;20477;-45
2021/06/26 01:05:39;;;;;;;2.05;1.85;;;20.70;66.00;;;;;;5013119;28;20029;-45
2021/06/26 01:08:05;;;;;;;2.75;2.53;;;20.20;65.70;;;;;;5013095;28;20142;-45
2021/06/26 01:10:31;;;;;;;2.33;2.13;;;20.20;65.70;;;;;;5013091;28;20022;-45
2021/06/26 01:12:57;;;;;;;3.35;2.05;;;20.40;65.80;;;;;;5012699;28;20053;-45
2021/06/26 01:15:23;;;;;;;2.33;2.15;;;20.90;66.10;;;;;;5013054;28;20460;-45
2021/06/26 01:17:49;;;;;;;2.30;2.10;;;20.20;65.70;;;;;;5012917;28;20062;-45
2021/06/26 01:20:16;;;;;;;3.15;2.13;;;20.50;65.90;;;;;;5012934;28;20037;-45
2021/06/26 01:22:47;;;;;;;2.58;2.38;;;20.50;65.90;;;;;;5011359;28;20116;-45
2021/06/26 01:25:16;;;;;;;2.58;2.38;;;20.40;65.90;;;;;;5012651;28;20026;-46
2021/06/26 01:27:43;;;;;;;2.60;2.10;;;20.40;65.90;;;;;;5012952;28;20036;-45
2021/06/26 01:30:11;;;;;;;2.20;2.00;;;20.10;65.70;;;;;;5011340;28;20037;-45
2021/06/26 01:32:37;;;;;;;2.38;2.10;;;20.40;65.80;;;;;;5012521;28;20035;-45
2021/06/26 01:35:05;;;;;;;2.05;1.88;;;20.30;65.80;;;;;;5012869;28;20029;-47
2021/06/26 01:37:30;;;;;;;2.08;1.90;;;20.40;65.80;;;;;;5012852;28;20080;-45
2021/06/26 01:39:56;;;;;;;3.03;2.30;;;20.30;65.80;;;;;;5012667;28;20026;-45
2021/06/26 01:42:22;;;;;;;2.05;1.95;;;20.40;86.60;;;;;;5012424;28;20026;-45
2021/06/26 01:44:47;;;;;;;2.20;2.00;;;20.20;65.80;;;;;;5012695;28;20034;-45
2021/06/26 01:47:13;;;;;;;2.45;2.15;;;20.40;66.00;;;;;;5012373;28;20077;-45
2021/06/26 01:49:39;;;;;;;2.45;2.20;;;20.20;65.70;;;;;;5012450;28;20215;-45
2021/06/26 01:52:08;;;;;;;2.30;2.03;;;20.40;65.90;;;;;;5012413;28;20022;-45
2021/06/26 01:54:34;;;;;;;2.20;2.00;;;20.40;65.90;;;;;;5015574;28;20392;-45
2021/06/26 01:57:00;;;;;;;2.05;1.85;;;20.40;65.90;;;;;;5016306;28;20026;-45
2021/06/26 01:59:25;;;;;;;2.17;1.98;;;20.10;65.70;;;;;;5015993;28;20026;-45
2021/06/26 02:01:51;;;;;;;2.38;2.17;;;20.40;65.90;;;;;;5016282;28;20033;-45
2021/06/26 02:04:16;;;;;;;2.30;2.05;;;20.40;65.90;;;;;;5016000;28;20025;-46
2021/06/26 02:06:42;;;;;;;2.10;1.90;;;20.10;65.60;;;;;;5016192;28;20492;-46
2021/06/26 02:09:08;;;;;;;2.17;1.98;;;20.40;66.00;;;;;;5016180;28;20076;-45
2021/06/26 02:11:34;;;;;;;2.55;2.35;;;20.70;66.10;;;;;;5016078;28;20026;-45
2021/06/26 02:14:00;;;;;;;2.10;1.90;;;20.40;65.90;;;;;;5015800;28;20045;-45
2021/06/26 02:16:25;;;;;;;2.40;2.20;;;20.10;65.70;;;;;;5016022;28;20108;-45
2021/06/26 02:18:53;;;;;;;2.20;1.80;;;20.30;65.80;;;;;;5015706;28;20645;-46
2021/06/26 02:21:19;;;;;;;2.42;2.17;;;20.60;66.00;;;;;;5015857;28;20042;-48
2021/06/26 02:23:44;;;;;;;3.25;2.22;;;20.60;66.00;;;;;;5014350;28;20029;-45
2021/06/26 02:26:10;;;;;;;2.28;2.08;;;20.40;65.90;;;;;;5015863;28;20018;-47
2021/06/26 02:28:35;;;;;;;2.72;2.00;;;20.10;65.80;;;;;;5015815;28;20483;-45
2021/06/26 02:31:01;;;;;;;2.10;1.85;;;20.30;65.80;;;;;;5015743;28;20018;-45
2021/06/26 02:33:27;;;;;;;2.00;1.83;;;20.70;66.10;;;;;;5015829;28;20026;-47
2021/06/26 02:35:52;;;;;;;2.28;2.08;;;20.30;66.50;;;;;;5015422;28;20424;-46
2021/06/26 02:38:18;;;;;;;2.38;2.13;;;20.30;65.90;;;;;;5015624;28;20029;-45
2021/06/26 02:40:43;;;;;;;2.20;2.00;;;20.60;66.00;;;;;;5015331;28;20493;-46
2021/06/26 02:43:09;;;;;;;1.67;1.58;;;20.10;65.80;;;;;;5015252;28;20697;-47
2021/06/26 02:45:35;;;;;;;1.92;1.83;;;21.00;66.40;;;;;;5015285;28;20404;-52
2021/06/26 02:48:00;;;;;;;2.05;1.77;;;20.30;65.90;;;;;;5015518;28;20076;-56
2021/06/26 02:50:26;;;;;;;2.45;2.20;;;20.10;65.70;;;;;;5013935;28;20070;-53
2021/06/26 02:52:51;;;;;;;2.70;2.25;;;20.30;65.90;;;;;;5015422;28;20025;-47
2021/06/26 02:55:17;;;;;;;1.90;1.80;;;20.40;66.00;;;;;;5015258;28;20018;-46
2021/06/26 02:57:43;;;;;;;3.05;2.30;;;20.20;65.80;;;;;;5015350;28;20026;-47
2021/06/26 03:00:09;;;;;;;2.35;2.15;;;20.50;66.00;;;;;;5014907;28;20092;-49
2021/06/26 03:02:35;;;;;;;2.42;2.17;;;20.30;65.90;;;;;;5014953;28;20033;-46
2021/06/26 03:05:01;;;;;;;2.47;2.10;;;20.10;65.80;;;;;;5013758;28;20024;-49
2021/06/26 03:07:29;;;;;;;2.85;1.80;;;20.30;65.90;;;;;;5015163;28;20025;-47
2021/06/26 03:09:54;;;;;;;2.50;2.30;;;20.10;65.80;;;;;;5015057;28;20488;-45
2021/06/26 03:12:20;;;;;;;2.75;2.55;;;20.10;65.80;;;;;;5015008;28;20026;-46
2021/06/26 03:14:45;;;;;;;2.38;2.17;;;20.10;65.80;;;;;;5014745;28;20042;-45
2021/06/26 03:17:11;;;;;;;1.92;1.80;;;20.10;65.80;;;;;;5014619;28;20026;-45
2021/06/26 03:19:37;;;;;;;2.75;2.47;;;20.30;65.90;;;;;;5014802;28;20025;-45
2021/06/26 03:22:03;;;;;;;2.78;2.58;;;20.30;66.00;;;;;;5014797;28;20436;-46
2021/06/26 03:24:29;;;;;;;2.50;2.30;;;20.30;66.00;;;;;;5014451;28;20530;-46
2021/06/26 03:26:55;;;;;;;2.30;2.10;;;20.70;66.20;;;;;;5014764;28;20021;-45
2021/06/26 03:29:21;;;;;;;2.70;2.50;;;20.30;66.00;;;;;;5014490;28;20465;-46
2021/06/26 03:31:47;;;;;;;5.28;2.80;;;20.40;66.00;;;;;;5014703;28;20061;-45
2021/06/26 03:34:13;;;;;;;2.50;2.30;;;20.10;65.90;;;;;;5014622;28;20026;-45
2021/06/26 03:36:38;;;;;;;2.63;2.42;;;20.00;65.80;;;;;;5014554;28;20374;-45
2021/06/26 03:39:04;;;;;;;2.35;2.17;;;20.40;66.00;;;;;;5014165;28;20029;-45
2021/06/26 03:41:30;;;;;;;3.20;2.90;;;20.60;66.10;;;;;;5014356;28;20038;-45
2021/06/26 03:43:58;;;;;;;4.57;3.08;;;20.70;66.20;;;;;;5014043;28;20018;-46
2021/06/26 03:46:24;;;;;;;3.17;2.97;;;20.30;65.90;;;;;;5014135;28;20046;-47
2021/06/26 03:48:50;;;;;;;2.78;2.50;;;20.30;66.00;;;;;;5012884;28;20425;-47
2021/06/26 03:51:16;;;;;;;3.33;2.92;;;20.30;66.00;;;;;;5014081;28;20029;-46
2021/06/26 03:53:42;;;;;;;2.85;2.65;;;20.30;66.00;;;;;;5014229;28;20014;-46
2021/06/26 03:56:07;;;;;;;4.25;3.58;;;20.30;66.00;;;;;;5014368;28;20061;-46
2021/06/26 03:58:33;;;;;;;2.75;2.55;;;20.10;66.00;;;;;;5014220;28;20022;-45
2021/06/26 04:00:59;;;;;;;3.28;2.97;;;20.00;65.80;;;;;;5013002;28;20227;-46
2021/06/26 04:03:24;;;;;;;3.05;2.83;;;20.10;65.90;;;;;;5014355;28;20426;-45
2021/06/26 04:05:50;;;;;;;3.30;2.92;;;20.30;66.00;;;;;;5014279;28;20028;-45
2021/06/26 04:08:16;;;;;;;3.22;2.95;;;20.30;66.00;;;;;;5014010;28;20018;-44
2021/06/26 04:10:43;;;;;;;3.90;3.50;;;20.60;66.20;;;;;;5013628;28;20017;-45
2021/06/26 04:13:09;;;;;;;3.70;3.40;;;20.50;66.20;;;;;;5013959;28;20166;-45
2021/06/26 04:15:35;;;;;;;3.72;3.42;;;20.30;66.10;;;;;;5013615;28;20022;-45
2021/06/26 04:18:02;;;;;;;2.97;2.78;;;20.30;66.00;;;;;;5013695;28;20022;-45
2021/06/26 04:20:28;;;;;;;3.15;2.95;;;20.30;66.00;;;;;;5013766;28;20116;-46
2021/06/26 04:22:53;;;;;;;3.45;3.15;;;20.30;66.10;;;;;;5013702;28;20114;-45
2021/06/26 04:25:20;;;;;;;2.65;2.45;;;20.50;66.20;;;;;;5013756;28;20129;-44
2021/06/26 04:27:45;;;;;;;3.67;3.38;;;20.00;65.80;;;;;;5013385;28;20022;-46
2021/06/26 04:30:12;;;;;;;3.50;3.20;;;20.30;66.10;;;;;;5013623;28;20080;-46
2021/06/26 04:32:39;;;;;;;3.42;3.20;;;20.30;66.10;;;;;;5013546;28;20034;-45
2021/06/26 04:35:07;;;;;;;3.40;3.10;;;20.50;66.10;;;;;;5012072;28;20101;-45
2021/06/26 04:37:33;;;;;;;4.47;3.78;;;20.30;66.00;;;;;;5013215;28;20485;-45
2021/06/26 04:39:59;;;;;;;3.22;2.92;;;20.40;86.80;;;;;;5013379;28;20079;-46
2021/06/26 04:42:24;;;;;;;3.58;3.28;;;20.30;66.10;;;;;;5013124;28;20030;-45
2021/06/26 04:44:50;;;;;;;3.55;3.25;;;20.10;66.00;;;;;;5012141;28;20452;-45
2021/06/26 04:47:16;;;;;;;4.30;3.67;;;20.30;66.10;;;;;;5012970;28;20038;-45
2021/06/26 04:49:41;;;;;;;3.88;3.58;;;20.30;66.20;;;;;;5013278;28;20492;-45
2021/06/26 04:52:08;;;;;;;3.17;2.97;;;20.30;66.10;;;;;;5012951;28;20060;-45
2021/06/26 04:54:35;;;;;;;3.20;3.00;;;20.00;65.90;;;;;;5013283;28;20059;-46
2021/06/26 04:57:00;;;;;;;3.97;3.67;;;20.10;66.00;;;;;;5013239;28;20153;-46
2021/06/26 04:59:26;;;;;;;4.75;3.53;;;20.30;66.10;;;;;;5011607;28;20076;-45
2021/06/26 05:01:52;;;;;;;4.30;3.90;;;20.30;66.10;;;;;;5013152;28;20033;-46
2021/06/26 05:04:17;;;;;;;4.70;3.60;;;20.30;66.10;;;;;;5012947;28;20515;-45
2021/06/26 05:06:43;;;;;;;3.63;3.22;;;20.30;66.10;;;;;;5012950;28;20037;-45
2021/06/26 05:09:08;;;;;;;3.42;3.17;;;20.60;66.20;;;;;;5011580;28;20046;-45
2021/06/26 05:11:34;;;;;;;3.70;3.40;;;20.00;65.90;;;;;;5013082;28;20022;-46
2021/06/26 05:14:00;;;;;;;4.18;3.78;;;20.10;66.00;;;;;;5012801;28;20026;-45
2021/06/26 05:16:25;;;;;;;3.38;3.08;;;20.60;66.30;;;;;;5012677;28;20053;-45
2021/06/26 05:18:51;;;;;;;3.20;3.00;;;20.20;66.10;;;;;;5011662;28;20109;-45
2021/06/26 05:21:16;;;;;;;3.20;2.90;;;20.60;66.30;;;;;;5012932;28;20126;-45
2021/06/26 05:23:42;;;;;;;3.30;3.00;;;20.20;66.00;;;;;;5012667;28;20384;-45
2021/06/26 05:26:09;;;;;;;3.67;3.30;;;20.00;65.80;;;;;;5012968;28;20041;-46
2021/06/26 05:28:38;;;;;;;3.95;3.55;;;20.00;65.90;;;;;;5014371;28;20030;-45
2021/06/26 05:31:05;;;;;;;3.65;3.05;;;20.00;66.00;;;;;;5016664;28;20061;-45
2021/06/26 05:33:31;;;;;;;2.83;2.63;;;20.60;66.30;;;;;;5016546;28;20022;-45
2021/06/26 05:35:56;;;;;;;3.42;3.13;;;20.00;65.90;;;;;;5016807;28;20026;-45
2021/06/26 05:38:22;;;;;;;3.35;3.05;;;20.20;66.00;;;;;;5016610;28;20412;-46
2021/06/26 05:40:47;;;;;;;3.60;3.30;;;20.00;65.90;;;;;;5016792;28;20469;-46
2021/06/26 05:43:13;;;;;;;4.30;3.90;;;20.30;66.10;;;;;;5016458;28;20022;-45
2021/06/26 05:45:39;;;;;;;3.72;3.42;;;20.00;66.00;;;;;;5016281;28;20091;-45
2021/06/26 05:48:06;;;;;;;5.03;3.85;;;20.50;66.20;;;;;;5016596;28;20022;-46
2021/06/26 05:50:31;;;;;;;4.05;3.75;;;20.30;66.10;;;;;;5016433;28;20053;-45
2021/06/26 05:52:57;;;;;;;3.97;3.58;;;20.30;66.00;;;;;;5016289;28;20022;-46
2021/06/26 05:55:25;;;;;;;4.30;3.90;;;20.00;65.80;;;;;;5015039;28;20069;-46
2021/06/26 05:57:50;;;;;;;5.93;3.80;;;20.30;66.00;;;;;;5016220;28;20014;-45
2021/06/26 06:00:17;;;;;;;4.80;4.22;;;20.10;65.80;;;;;;5016215;28;20084;-45
2021/06/26 06:02:44;;;;;;;4.80;4.40;;;20.20;66.00;;;;;;5016079;28;20022;-45
2021/06/26 06:05:12;;;;;;;4.75;4.35;;;20.40;66.00;;;;;;5016148;28;20060;-45
2021/06/26 06:07:38;;;;;;;4.38;3.97;;;20.30;65.90;;;;;;5016334;28;20471;-45
2021/06/26 06:10:06;;;;;;;4.07;3.78;;;20.50;66.50;;;;;;5016244;28;20096;-45
2021/06/26 06:12:33;;;;;;;3.53;3.22;;;20.30;65.70;;;;;;5015875;28;20032;-47
2021/06/26 06:15:00;;;;;;;3.63;3.33;;;20.60;65.80;;;;;;5016181;28;20465;-46
2021/06/26 06:17:25;;;;;;;3.47;3.17;;;20.30;65.70;;;;;;5015896;28;20068;-46
2021/06/26 06:19:51;;;;;;;3.35;3.10;;;20.40;65.80;;;;;;5015993;28;20416;-45
2021/06/26 06:22:17;;;;;;;3.47;3.17;;;20.00;65.60;;;;;;5016052;28;20527;-46
2021/06/26 06:24:42;;;;;;;3.38;3.08;;;20.30;65.80;;;;;;5015975;28;20049;-45
2021/06/26 06:27:08;;;;;;;3.83;3.53;;;20.30;65.80;;;;;;5015965;28;20479;-45
2021/06/26 06:29:33;;;;;;;3.67;3.40;;;20.30;65.60;;;;;;5015828;28;20104;-45
2021/06/26 06:31:59;;;;;;;4.05;3.35;;;20.20;86.40;;;;;;5015503;28;20026;-45
2021/06/26 06:34:25;;;;;;;4.18;3.60;;;20.10;65.60;;;;;;5015807;28;20026;-46
2021/06/26 06:36:50;;;;;;;4.72;3.92;;;20.30;65.80;;;;;;5015841;28;20424;-47
2021/06/26 06:39:16;;;;;;;4.70;3.22;;;20.10;65.80;;;;;;5015389;28;20021;-45
2021/06/26 06:41:42;;;;;;;8.20;4.00;;;20.30;66.10;;;;;;5015708;28;20507;-46
2021/06/26 06:44:07;;;;;;;4.07;3.67;;;20.40;66.00;;;;;;5014071;28;20022;-46
2021/06/26 06:46:33;;;;;;;6.10;3.78;;;20.40;65.90;;;;;;5015117;28;20073;-45
2021/06/26 06:48:58;;;;;;;4.60;4.20;;;20.10;65.80;;;;;;5015213;28;20022;-45
2021/06/26 06:51:24;;;;;;;4.22;3.78;;;20.30;66.00;;;;;;5015088;28;20037;-46
2021/06/26 06:53:50;;;;;;;3.92;3.38;;;20.70;66.20;;;;;;5014182;28;20026;-45
2021/06/26 06:56:15;;;;;;;4.50;3.60;;;20.40;65.70;;;;;;5014211;28;20067;-45
2021/06/26 06:58:41;;;;;;;5.13;4.20;;;20.40;66.00;;;;;;5015304;28;20465;-45
2021/06/26 07:01:06;;;;;;;4.95;3.63;;;20.50;65.80;;;;;;5013616;28;20026;-45
2021/06/26 07:03:32;;;;;;;4.82;3.30;;;20.10;65.50;;;;;;5014899;28;20105;-47
2021/06/26 07:05:57;;;;;;;4.15;3.72;;;20.30;65.50;;;;;;5013857;28;20114;-47
2021/06/26 07:08:23;;;;;;;4.65;3.65;;;20.40;65.60;;;;;;5015214;28;20022;-45
2021/06/26 07:10:49;;;;;;;4.75;3.80;;;20.50;65.50;;;;;;5015188;28;20022;-47
2021/06/26 07:13:14;;;;;;;4.47;3.63;;;20.60;65.20;;;;;;5015197;28;20380;-46
2021/06/26 07:15:40;;;;;;;8.45;3.47;;;20.30;65.20;;;;;;5015016;28;20018;-45
2021/06/26 07:18:05;;;;;;;3.95;3.53;;;20.40;65.40;;;;;;5014557;28;20045;-44
2021/06/26 07:20:31;;;;;;;4.72;4.07;;;20.40;65.30;;;;;;5014831;28;20038;-45
2021/06/26 07:22:57;;;;;;;4.88;4.38;;;20.40;65.30;;;;;;5014974;28;20354;-45
2021/06/26 07:25:23;;;;;;;6.05;3.40;;;20.40;65.40;;;;;;5014532;28;20108;-44
2021/06/26 07:27:50;;;;;;;7.43;4.00;;;20.60;65.40;;;;;;5014590;28;20030;-44
2021/06/26 07:30:16;;;;;;;8.02;4.28;;;20.50;65.50;;;;;;5014517;28;20045;-46
2021/06/26 07:32:44;;;;;;;13.65;4.28;;;20.60;65.60;;;;;;5014406;28;20041;-44
2021/06/26 07:35:10;;;;;;;6.55;4.07;;;20.60;65.60;;;;;;5014585;28;20120;-44
2021/06/26 07:37:35;;;;;;;10.00;3.92;;;20.50;65.60;;;;;;5014467;28;20105;-46
2021/06/26 07:40:01;;;;;;;9.25;4.22;;;20.90;66.00;;;;;;5014407;28;20014;-45
2021/06/26 07:42:27;;;;;;;7.32;4.20;;;20.60;66.20;;;;;;5014366;28;20488;-46
2021/06/26 07:44:52;;;;;;;7.28;4.32;;;20.70;66.10;;;;;;5014142;28;20018;-45
2021/06/26 07:47:18;;;;;;;7.00;3.78;;;20.40;65.90;;;;;;5013952;28;20064;-44
2021/06/26 07:49:43;;;;;;;5.57;3.63;;;20.40;65.80;;;;;;5014415;28;20022;-45
2021/06/26 07:52:09;;;;;;;8.77;3.60;;;20.60;65.80;;;;;;5013793;28;20080;-45
2021/06/26 07:54:35;;;;;;;7.72;4.30;;;20.60;65.60;;;;;;5012822;28;20444;-45
2021/06/26 07:57:00;;;;;;;7.60;4.28;;;20.70;65.70;;;;;;5013805;28;20022;-45
2021/06/26 07:59:26;;;;;;;4.85;4.13;;;20.70;65.70;;;;;;5014097;28;20022;-44
2021/06/26 08:01:51;;;;;;;5.60;3.55;;;20.50;65.50;;;;;;5014215;28;20057;-46
2021/06/26 08:04:19;;;;;;;5.70;4.00;;;20.60;65.50;;;;;;5014211;28;20022;-45
2021/06/26 08:06:45;;;;;;;7.50;3.90;;;20.40;65.40;;;;;;5014057;28;20022;-45
2021/06/26 08:09:10;;;;;;;6.53;3.97;;;20.60;65.40;;;;;;5014081;28;20025;-45
2021/06/26 08:11:36;;;;;;;7.28;4.20;;;20.40;65.20;;;;;;5013657;28;20026;-45
2021/06/26 08:14:02;;;;;;;5.45;3.85;;;20.70;65.30;;;;;;5013660;28;20121;-45
2021/06/26 08:16:27;;;;;;;7.43;3.75;;;20.50;65.20;;;;;;5014037;28;20185;-45
2021/06/26 08:18:53;;;;;;;5.78;3.85;;;21.00;65.40;;;;;;5013683;28;20077;-45
2021/06/26 08:21:21;;;;;;;3.90;3.50;;;20.40;65.00;;;;;;5013715;28;20168;-45
2021/06/26 08:23:48;;;;;;;5.10;3.65;;;20.70;65.00;;;;;;5013859;28;20018;-45
2021/06/26 08:26:14;;;;;;;4.72;3.97;;;20.80;65.00;;;;;;5013698;28;20112;-45
2021/06/26 08:28:41;;;;;;;5.35;3.60;;;20.80;64.90;;;;;;5013508;28;20092;-45
2021/06/26 08:31:06;;;;;;;5.25;3.75;;;20.80;64.80;;;;;;5013559;28;20099;-45
2021/06/26 08:33:32;;;;;;;4.45;3.63;;;20.60;64.60;;;;;;5013256;28;20022;-45
2021/06/26 08:35:57;;;;;;;7.20;4.03;;;20.80;64.70;;;;;;5013197;28;20393;-45
2021/06/26 08:38:23;;;;;;;4.78;3.65;;;20.80;64.60;;;;;;5013402;28;20029;-47
2021/06/26 08:40:54;;;;;;;7.93;3.75;;;20.90;64.60;;;;;;5013282;28;20101;-45
2021/06/26 08:43:20;;;;;;;4.68;3.28;;;20.90;64.60;;;;;;5013307;28;20032;-45
2021/06/26 08:45:46;;;;;;;4.32;3.83;;;20.60;64.40;;;;;;5013076;28;20407;-45
2021/06/26 08:48:12;;;;;;;7.80;3.75;;;20.90;64.50;;;;;;5013145;28;20097;-45
2021/06/26 08:50:38;;;;;;;4.10;3.38;;;20.90;64.40;;;;;;5013164;28;20061;-45
2021/06/26 08:53:04;;;;;;;3.92;3.45;;;20.90;64.40;;;;;;5013354;28;20018;-45
2021/06/26 08:55:30;;;;;;;4.35;3.45;;;21.20;64.50;;;;;;5011831;28;20499;-45
2021/06/26 08:57:56;;;;;;;6.60;3.95;;;20.90;64.30;;;;;;5013009;28;20499;-45
2021/06/26 09:00:26;;;;;;;5.60;3.78;;;21.30;64.40;;;;;;5013202;28;20037;-44
2021/06/26 09:03:08;;;;;;;4.45;3.40;;;20.90;64.10;;;;;;5012998;28;20018;-45
2021/06/26 09:05:35;;;;;;;3.80;3.40;;;20.90;64.00;;;;;;5013258;28;20032;-46
2021/06/26 09:08:12;;;;;;;5.22;3.40;;;21.00;64.10;;;;;;5012953;28;20014;-45
2021/06/26 09:10:39;;;;;;;5.07;3.88;;;21.10;64.10;;;;;;5012986;28;20026;-44
2021/06/26 09:13:23;;;;;;;5.82;3.35;;;21.20;64.20;;;;;;5012966;28;20022;-44
2021/06/26 09:15:49;;;;;;;4.75;4.10;;;21.00;64.00;;;;;;5013186;28;20041;-45
2021/06/26 09:18:20;;;;;;;4.20;2.92;;;21.00;64.00;;;;;;5013061;28;20376;-45
2021/06/26 09:20:51;;;;;;;6.97;3.60;;;21.10;64.10;;;;;;5013054;28;20135;-45
2021/06/26 09:23:42;;;;;;;5.18;3.78;;;21.10;64.00;;;;;;5012936;28;20141;-44
2021/06/26 09:26:12;;;;;;;5.47;3.70;;;21.00;64.00;;;;;;5013144;28;20025;-45
2021/06/26 09:28:39;;;;;;;4.32;3.60;;;21.00;64.00;;;;;;5012860;28;20029;-46
2021/06/26 09:31:17;;;;;;;4.90;4.22;;;21.10;64.00;;;;;;5012916;28;20109;-44
2021/06/26 09:33:53;;;;;;;4.57;3.35;;;21.00;63.90;;;;;;5012750;28;20036;-46
2021/06/26 09:36:24;;;;;;;4.15;3.78;;;21.00;64.00;;;;;;5013091;28;20026;-48
2021/06/26 09:38:56;;;;;;;;;;;21.00;64.00;;;;;;5013198;28;20285;-47
2021/06/26 09:41:22;;;;;;;4.60;3.88;;;21.00;63.90;;;;;;5012896;28;19913;-46
2021/06/26 09:43:47;;;;;;;6.03;4.07;;;21.00;64.00;;;;;;5012527;28;20029;-45
2021/06/26 09:46:17;;;;;;;3.95;3.58;;;21.00;63.90;;;;;;5012678;28;20053;-47
2021/06/26 09:48:59;;;;;;;3.65;3.35;;;21.10;63.90;;;;;;5012512;28;20109;-45
2021/06/26 09:51:27;;;;;;;4.32;3.92;;;21.20;64.00;;;;;;5013042;28;20061;-45
2021/06/26 09:54:01;;;;;;;5.32;4.15;;;21.40;64.00;;;;;;5012715;28;20018;-46
2021/06/26 09:56:45;;;;;;;5.18;3.65;;;21.10;63.80;;;;;;5012607;28;20116;-44
2021/06/26 09:59:13;;;;;;;6.20;3.95;;;21.60;64.00;;;;;;5012574;28;20034;-45
2021/06/26 10:01:42;;;;;;;5.43;3.67;;;20.80;63.60;;;;;;5012357;28;20038;-45
2021/06/26 10:04:15;;;;;;;4.20;3.78;;;21.20;63.80;;;;;;5012573;28;20032;-45
2021/06/26 10:06:43;;;;;;;4.05;3.65;;;21.10;63.80;;;;;;5012741;28;20022;-45
2021/06/26 10:09:08;;;;;;;4.93;3.47;;;21.20;63.90;;;;;;5012481;28;20022;-45
2021/06/26 10:11:39;;;;;;;4.45;3.70;;;20.90;63.70;;;;;;5011446;28;20130;-45
2021/06/26 10:14:07;;;;;;;4.38;3.67;;;21.20;63.90;;;;;;5012814;28;20029;-47
2021/06/26 10:16:35;;;;;;;4.90;3.85;;;21.20;64.60;;;;;;5015964;28;20033;-45
2021/06/26 10:19:04;;;;;;;4.63;4.00;;;21.20;63.90;;;;;;5014605;28;20026;-45
2021/06/26 10:21:31;;;;;;;7.43;4.60;;;21.20;64.00;;;;;;5016042;28;20117;-46
2021/06/26 10:23:59;;;;;;;4.40;4.00;;;21.30;64.10;;;;;;5015792;28;20540;-46
2021/06/26 10:26:26;;;;;;;4.70;4.20;;;21.20;64.00;;;;;;5015550;28;20465;-45
2021/06/26 10:28:59;;;;;;;5.10;3.97;;;21.60;64.30;;;;;;5015940;28;20033;-48
2021/06/26 10:31:37;;;;;;;4.45;4.03;;;21.30;64.10;;;;;;5015963;28;20018;-45
2021/06/26 10:34:17;;;;;;;4.05;3.65;;;21.40;64.10;;;;;;5015856;28;20025;-48
2021/06/26 10:36:56;;;;;;;4.30;3.85;;;21.20;64.00;;;;;;5015797;28;20105;-46
2021/06/26 10:39:28;;;;;;;5.10;3.85;;;21.20;64.00;;;;;;5015704;28;20026;-47
2021/06/26 10:41:59;;;;;;;6.63;4.60;;;21.30;84.60;;;;;;5013954;28;20571;-45
2021/06/26 10:44:25;;;;;;;4.60;4.13;;;21.20;64.00;;;;;;5015529;28;20030;-45
2021/06/26 10:46:50;;;;;;;5.45;4.22;;;21.20;64.00;;;;;;5015108;28;20046;-45
2021/06/26 10:49:27;;;;;;;6.32;4.60;;;21.20;63.90;;;;;;5015564;28;20026;-45
2021/06/26 10:51:53;;;;;;;4.18;3.78;;;21.20;63.90;;;;;;5015609;28;20026;-45
2021/06/26 10:54:20;;;;;;;5.38;3.47;;;21.20;63.90;;;;;;5015418;28;20076;-45
2021/06/26 10:56:47;;;;;;;4.30;4.00;;;21.20;63.90;;;;;;5015407;28;20022;-46
2021/06/26 10:59:19;;;;;;;6.18;4.35;;;21.20;63.90;;;;;;5015390;28;20069;-45
2021/06/26 11:01:52;;;;;;;5.00;4.38;;;21.30;64.00;;;;;;5015191;28;20030;-44
2021/06/26 11:04:17;;;;;;;4.75;4.35;;;21.30;63.90;;;;;;5015224;28;20026;-45
2021/06/26 11:06:43;;;;;;;4.57;3.55;;;21.30;63.90;;;;;;5015173;28;20465;-46
2021/06/26 11:09:13;;;;;;;4.22;3.83;;;21.40;63.90;;;;;;5015098;28;20499;-45
2021/06/26 11:11:44;;;;;;;4.47;4.07;;;21.30;63.80;;;;;;5015123;28;20026;-45
2021/06/26 11:14:14;;;;;;;4.82;4.30;;;21.30;63.90;;;;;;5014746;28;20061;-45
2021/06/26 11:16:42;;;;;;;;;;;21.40;64.30;;;;;;5015470;28;20041;-45
2021/06/26 11:19:07;;;;;;;6.05;4.70;;;21.10;64.40;;;;;;5014765;28;20049;-44
2021/06/26 11:21:38;;;;;;;5.55;4.95;;;21.30;64.70;;;;;;5014888;28;20192;-45
2021/06/26 11:24:04;;;;;;;5.53;5.03;;;21.40;65.60;;;;;;5014663;28;20495;-46
2021/06/26 11:26:30;;;;;;;6.25;4.80;;;21.40;65.80;;;;;;5013475;28;20033;-45
2021/06/26 11:28:55;;;;;;;5.78;5.20;;;21.20;65.60;;;;;;5014782;28;20010;-44
2021/06/26 11:31:21;;;;;;;5.30;4.75;;;21.40;66.00;;;;;;5014669;28;20408;-44
2021/06/26 11:33:47;;;;;;;6.13;5.25;;;21.80;66.50;;;;;;5014742;28;20106;-44
2021/06/26 11:36:13;;;;;;;5.07;4.25;;;21.40;66.60;;;;;;5014324;28;20022;-45
2021/06/26 11:38:40;;;;;;;5.30;4.80;;;21.40;67.30;;;;;;5014280;28;20030;-45
2021/06/26 11:41:11;;;;;;;6.32;5.68;;;21.50;67.20;;;;;;5013255;28;20037;-44
2021/06/26 11:43:37;;;;;;;6.25;5.68;;;21.50;67.30;;;;;;5014446;28;20071;-44
2021/06/26 11:46:06;;;;;;;6.53;5.93;;;21.50;67.30;;;;;;5014135;28;20378;-44
2021/06/26 11:48:32;;;;;;;6.85;6.15;;;21.30;67.10;;;;;;5014080;28;20461;-45
2021/06/26 11:51:07;;;;;;;7.72;5.90;;;21.50;67.00;;;;;;5014465;28;20427;-45
2021/06/26 11:53:37;;;;;;;8.27;6.70;;;21.50;66.70;;;;;;5014058;28;20108;-44
2021/06/26 11:56:03;;;;;;;;;;;21.80;66.60;;;;;;5014504;28;20504;-44
2021/06/26 11:58:46;;;;;;;7.03;5.75;;;21.50;66.30;;;;;;5014281;28;19905;-44
2021/06/26 12:01:24;;;;;;;7.38;6.65;;;21.50;66.10;;;;;;5014116;28;20035;-45
2021/06/26 12:03:50;;;;;;;6.63;5.93;;;21.50;66.00;;;;;;5014239;28;20105;-44
2021/06/26 12:06:16;;;;;;;6.50;5.90;;;21.30;65.80;;;;;;5014143;28;20448;-44
2021/06/26 12:08:54;;;;;;;6.80;6.20;;;21.90;66.00;;;;;;5014078;28;20026;-44
2021/06/26 12:11:21;;;;;;;6.35;5.70;;;21.50;65.80;;;;;;5014026;28;20033;-44
2021/06/26 12:13:48;;;;;;;7.18;6.47;;;21.50;65.70;;;;;;5014084;28;20083;-44
2021/06/26 12:16:18;;;;;;;7.03;6.38;;;21.50;65.60;;;;;;5013802;28;20385;-44
2021/06/26 12:18:55;;;;;;;7.18;6.45;;;21.60;65.50;;;;;;5013946;28;20369;-45
2021/06/26 12:21:25;;;;;;;7.55;6.63;;;21.60;65.40;;;;;;5013874;28;20038;-44
2021/06/26 12:23:52;;;;;;;6.97;6.32;;;21.60;65.30;;;;;;5013554;28;20472;-44
2021/06/26 12:26:25;;;;;;;7.47;6.63;;;21.90;65.50;;;;;;5013720;28;20033;-44
2021/06/26 12:28:52;;;;;;;7.10;6.38;;;21.60;65.20;;;;;;5013742;28;20028;-45
2021/06/26 12:31:19;;;;;;;6.88;6.18;;;21.60;65.10;;;;;;5013490;28;20037;-44
2021/06/26 12:33:47;;;;;;;5.97;5.40;;;21.90;65.30;;;;;;5013691;28;20048;-44
2021/06/26 12:36:21;;;;;;;8.80;6.18;;;21.60;65.10;;;;;;5013692;28;20440;-45
2021/06/26 12:38:47;;;;;;;6.30;5.70;;;21.60;65.00;;;;;;5013344;28;20026;-44
2021/06/26 12:41:30;;;;;;;7.00;6.40;;;21.80;65.10;;;;;;5013477;28;20045;-44
2021/06/26 12:43:57;;;;;;;7.72;6.35;;;21.60;64.90;;;;;;5013466;28;20010;-44
2021/06/26 12:46:25;;;;;;;7.32;6.72;;;21.50;64.80;;;;;;5013153;28;20057;-44
2021/06/26 12:48:59;;;;;;;7.22;5.97;;;21.60;64.80;;;;;;5013532;28;20025;-44